createdAt,value
2023-05-21T00:04:37.979Z,15.8
2023-05-21T00:10:30.834Z,17.3
2023-05-21T00:16:22.814Z,15.9
2023-05-21T00:22:15.229Z,16.8
2023-05-21T00:28:07.846Z,16.2
2023-05-21T00:34:00.148Z,16.7
2023-05-21T00:39:52.763Z,17.4
2023-05-21T00:45:47.882Z,17.9
2023-05-21T00:51:42.624Z,17.4
2023-05-21T00:57:35.060Z,19.3
2023-05-21T01:03:27.430Z,20.7
2023-05-21T01:09:19.692Z,20.4
2023-05-21T01:15:11.698Z,20
2023-05-21T01:21:04.975Z,18.7
2023-05-21T01:26:56.886Z,20.4
2023-05-21T01:32:50.055Z,17.6
2023-05-21T01:38:42.838Z,17.3
2023-05-21T01:44:35.300Z,18.1
2023-05-21T01:50:27.053Z,20.2
2023-05-21T01:56:19.909Z,19.3
2023-05-21T02:02:13.303Z,21.5
2023-05-21T02:08:05.400Z,23.1
2023-05-21T02:13:57.403Z,21.9
2023-05-21T02:19:48.950Z,23.5
2023-05-21T02:25:41.810Z,22.8
2023-05-21T02:31:33.722Z,24
2023-05-21T02:37:24.735Z,21.5
2023-05-21T02:43:19.585Z,24.3
2023-05-21T02:49:11.590Z,25.4
2023-05-21T02:55:04.301Z,26.6
2023-05-21T03:00:56.118Z,28
2023-05-21T03:06:48.449Z,25.1
2023-05-21T03:12:40.532Z,27.3
2023-05-21T03:18:32.524Z,29
2023-05-21T03:24:25.539Z,27.5
2023-05-21T03:30:17.735Z,27.6
2023-05-21T03:36:09.480Z,29.4
2023-05-21T03:42:01.568Z,29.4
2023-05-21T03:47:55.033Z,32.1
2023-05-21T03:53:47.210Z,28.8
2023-05-21T03:59:40.438Z,28.6
2023-05-21T04:05:33.145Z,29.1
2023-05-21T04:11:25.978Z,33.2
2023-05-21T04:17:18.159Z,29.7
2023-05-21T04:23:10.752Z,31
2023-05-21T04:29:02.486Z,28.5
2023-05-21T04:34:54.587Z,30.2
2023-05-21T04:40:46.492Z,31
2023-05-21T04:46:42.118Z,31.2
2023-05-21T04:52:33.993Z,34.6
2023-05-21T04:58:27.115Z,35.1
2023-05-21T05:04:19.776Z,34.7
2023-05-21T05:10:11.414Z,31.7
2023-05-21T05:16:03.953Z,35.1
2023-05-21T05:21:55.730Z,34.9
2023-05-21T05:27:48.030Z,36.3
2023-05-21T05:33:40.554Z,32.9
2023-05-21T05:39:32.513Z,33.7
2023-05-21T05:45:24.446Z,31.5
2023-05-21T05:51:16.700Z,29.5
2023-05-21T05:57:08.490Z,32.8
2023-05-21T06:03:00.832Z,30.8
2023-05-21T06:08:52.985Z,30.8
2023-05-21T06:14:49.754Z,30.9
2023-05-21T06:20:41.862Z,29.1
2023-05-21T06:26:33.491Z,27.6
2023-05-21T06:32:25.759Z,25.9
2023-05-21T06:38:18.975Z,23.8
2023-05-21T06:44:13.209Z,23.6
2023-05-21T06:50:05.762Z,22.8
2023-05-21T06:55:58.394Z,26.3
2023-05-21T07:01:50.992Z,22.1
2023-05-21T07:07:43.138Z,22.9
2023-05-21T07:13:35.098Z,26.2
2023-05-21T07:19:28.187Z,24.7
2023-05-21T07:25:20.552Z,23.4
2023-05-21T07:31:12.563Z,21.6
2023-05-21T07:37:04.822Z,22.3
2023-05-21T07:42:56.785Z,23.1
2023-05-21T07:48:48.803Z,22.4
2023-05-21T07:54:41.698Z,21.9
2023-05-21T08:00:41.653Z,19.6
2023-05-21T08:06:35.282Z,21.4
2023-05-21T08:12:30.289Z,22.9
2023-05-21T08:18:24.665Z,21.3
2023-05-21T08:24:18.838Z,22.8
2023-05-21T08:30:10.485Z,21.9
2023-05-21T08:36:03.048Z,22.8
2023-05-21T08:41:59.257Z,22.5
2023-05-21T08:47:53.989Z,22.2
2023-05-21T08:54:52.434Z,22.8
2023-05-21T09:00:44.452Z,22.2
2023-05-21T09:06:36.244Z,23.1
2023-05-21T09:12:28.645Z,22.8
2023-05-21T09:18:21.516Z,25.5
2023-05-21T09:24:13.148Z,23.9
2023-05-21T09:30:05.548Z,24.1
2023-05-21T09:35:57.407Z,23.2
2023-05-21T09:41:49.505Z,25.2
2023-05-21T09:47:41.014Z,24.3
2023-05-21T09:53:32.652Z,23
2023-05-21T09:59:25.482Z,25.3
2023-05-21T10:05:17.501Z,24.5
2023-05-21T10:11:11.848Z,24.9
2023-05-21T10:17:04.253Z,24.9
2023-05-21T10:22:56.707Z,27.4
2023-05-21T10:28:48.940Z,27.6
2023-05-21T10:34:40.942Z,26.9
2023-05-21T10:40:33.422Z,23.8
2023-05-21T10:46:26.738Z,27.4
2023-05-21T10:52:20.989Z,27.4
2023-05-21T10:58:13.076Z,22
2023-05-21T11:04:08.874Z,26.7
2023-05-21T11:10:00.424Z,27.5
2023-05-21T11:15:53.020Z,21.8
2023-05-21T11:21:44.529Z,20.5
2023-05-21T11:27:36.788Z,20.3
2023-05-21T11:33:28.907Z,17.9
2023-05-21T11:39:21.100Z,20.7
2023-05-21T11:45:13.662Z,21.6
2023-05-21T11:51:04.884Z,19.3
2023-05-21T11:56:56.428Z,19.4
2023-05-21T12:03:57.879Z,19.5
2023-05-21T12:09:47.550Z,18.4
2023-05-21T12:15:39.022Z,18.9
2023-05-21T12:21:30.463Z,19.6
2023-05-21T12:27:22.125Z,20.6
2023-05-21T12:33:13.511Z,18.1
2023-05-21T12:39:04.977Z,19.2
2023-05-21T12:44:55.709Z,17
2023-05-21T12:50:47.373Z,18.6
2023-05-21T12:56:39.435Z,17.8
2023-05-21T13:02:31.779Z,17.7
2023-05-21T13:08:22.868Z,20.4
2023-05-21T13:14:13.906Z,15.9
2023-05-21T13:20:05.449Z,16.8
2023-05-21T13:25:57.409Z,16.7
2023-05-21T13:31:48.781Z,17.8
2023-05-21T13:37:39.585Z,18.3
2023-05-21T13:43:31.738Z,17.4
2023-05-21T13:49:23.782Z,17
2023-05-21T13:55:16.120Z,15.2
2023-05-21T14:01:08.547Z,18.8
2023-05-21T14:07:00.391Z,18.2
2023-05-21T14:12:52.495Z,16.2
2023-05-21T14:18:50.617Z,15.8
2023-05-21T14:24:42.530Z,16.8
2023-05-21T14:30:35.082Z,16.8
2023-05-21T14:36:27.212Z,15.5
2023-05-21T14:42:19.544Z,16.2
2023-05-21T14:48:12.224Z,15.4
2023-05-21T14:54:04.459Z,17.6
2023-05-21T14:59:56.478Z,15.3
2023-05-21T15:05:48.352Z,16.8
2023-05-21T15:11:39.619Z,14.8
2023-05-21T15:17:32.034Z,16.9
2023-05-21T15:23:24.142Z,16
2023-05-21T15:29:15.648Z,18.2
2023-05-21T15:35:08.976Z,15.3
2023-05-21T15:41:02.771Z,15.9
2023-05-21T15:46:53.830Z,15.4
2023-05-21T15:52:46.619Z,15.7
2023-05-21T15:58:40.534Z,16.4
2023-05-21T16:04:31.879Z,19.9
2023-05-21T16:10:23.982Z,17.6
2023-05-21T16:16:16.080Z,16.7
2023-05-21T16:22:10.706Z,17.3
2023-05-21T16:28:02.663Z,18.3
2023-05-21T16:33:54.956Z,17.5
2023-05-21T16:39:46.203Z,17.1
2023-05-21T16:45:38.107Z,19.2
2023-05-21T16:51:30.451Z,17.1
2023-05-21T16:57:23.006Z,17.7
2023-05-21T17:03:15.409Z,16.4
2023-05-21T17:09:07.776Z,18
2023-05-21T17:14:59.402Z,13.5
2023-05-21T17:20:51.826Z,11.5
2023-05-21T17:26:41.621Z,11.1
2023-05-21T17:32:31.527Z,9.5
2023-05-21T17:38:21.683Z,12.2
2023-05-21T17:44:11.846Z,11.6
2023-05-21T17:50:03.976Z,12.5
2023-05-21T17:55:55.674Z,12
2023-05-21T18:01:47.803Z,13.1
2023-05-21T18:07:40.453Z,14.8
2023-05-21T18:13:32.276Z,13.8
2023-05-21T18:19:24.921Z,12.9
2023-05-21T18:25:17.410Z,13.7
2023-05-21T18:31:09.909Z,14.2
2023-05-21T18:37:01.933Z,14
2023-05-21T18:42:53.629Z,15.5
2023-05-21T18:48:45.711Z,15.1
2023-05-21T18:54:37.737Z,15.4
2023-05-21T19:00:29.617Z,15.2
2023-05-21T19:06:21.420Z,15.4
2023-05-21T19:12:12.944Z,14.8
2023-05-21T19:18:05.325Z,14.9
2023-05-21T19:23:58.799Z,15.5
2023-05-21T19:29:50.935Z,14.8
2023-05-21T19:35:44.035Z,15.9
2023-05-21T19:41:36.031Z,17.1
2023-05-21T19:47:28.174Z,16.3
2023-05-21T19:53:20.336Z,17.2
2023-05-21T19:59:12.762Z,17.3
2023-05-21T20:05:05.565Z,18.3
2023-05-21T20:10:58.140Z,19.7
2023-05-21T20:16:50.680Z,23.9
2023-05-21T20:22:42.824Z,22.7
2023-05-21T20:28:34.976Z,23.9
2023-05-21T20:34:27.137Z,22.2
2023-05-21T20:40:20.975Z,27.2
2023-05-21T20:46:13.459Z,26.4
2023-05-21T20:52:04.562Z,27.4
2023-05-21T20:57:57.014Z,29.7
2023-05-21T21:03:51.028Z,28
2023-05-21T21:09:45.194Z,25.5
2023-05-21T21:15:37.793Z,28.1
2023-05-21T21:21:30.714Z,26.5
2023-05-21T21:27:22.605Z,26.6
2023-05-21T21:33:15.718Z,25.9
2023-05-21T21:39:09.518Z,25.6
2023-05-21T21:45:02.062Z,28.2
2023-05-21T21:50:54.524Z,32
2023-05-21T21:56:46.135Z,30.1
2023-05-21T22:02:40.220Z,29.4
2023-05-21T22:08:31.718Z,28.2
2023-05-21T22:14:24.249Z,29.6
2023-05-21T22:20:16.551Z,30.2
2023-05-21T22:26:08.713Z,31.6
2023-05-21T22:32:01.109Z,28.9
2023-05-21T22:37:53.045Z,29.3
2023-05-21T22:43:45.771Z,30.3
2023-05-21T22:49:37.573Z,31.5
2023-05-21T22:55:30.631Z,32
2023-05-21T23:01:23.372Z,33.4
2023-05-21T23:07:15.778Z,31.2
2023-05-21T23:13:08.892Z,35.4
2023-05-21T23:19:01.367Z,34.9
2023-05-21T23:24:55.566Z,33.4
2023-05-21T23:30:47.462Z,37.5
2023-05-21T23:36:38.013Z,35.5
2023-05-21T23:42:30.199Z,38.3
2023-05-21T23:48:22.895Z,37.4
2023-05-21T23:55:23.551Z,37.6
